Time;durP1;ratioP1;P1;durP2;ratioP2;P2;SDS_P1;SDS_P2;PMS_P1;PMS_P2;Temp;Humidity;BMP_temperature;BMP_pressure;BME280_temperature;BME280_humidity;BME280_pressure;Samples;Min_cycle;Max_cycle;Signal;HPM_P1;HPM_P2
2021/07/29 00:01:53;;;;;;;11.02;7.60;;;15.10;99.90;;;;;;5071406;28;20059;-83
2021/07/29 00:04:20;;;;;;;12.90;8.80;;;15.00;99.90;;;;;;5071346;28;20063;-82
2021/07/29 00:06:47;;;;;;;12.23;9.15;;;14.90;99.90;;;;;;5072143;28;20044;-82
2021/07/29 00:09:14;;;;;;;12.70;9.63;;;14.90;99.90;;;;;;5071470;28;20080;-82
2021/07/29 00:11:41;;;;;;;13.70;9.02;;;15.00;99.90;;;;;;5072483;28;20139;-82
2021/07/29 00:14:07;;;;;;;8.98;8.10;;;14.90;99.90;;;;;;5071449;28;20048;-82
2021/07/29 00:16:43;;;;;;;9.18;8.25;;;14.80;99.90;;;;;;5071399;28;20127;-83
2021/07/29 00:19:10;;;;;;;12.63;9.13;;;14.80;99.90;;;;;;5071196;28;20492;-82
2021/07/29 00:21:39;;;;;;;11.43;9.23;;;14.70;99.90;;;;;;5072066;28;20051;-81
2021/07/29 00:24:06;;;;;;;11.35;10.15;;;14.60;99.90;;;;;;5084184;28;20104;-82
2021/07/29 00:26:34;;;;;;;13.15;9.98;;;14.60;99.90;;;;;;5073232;28;20056;-82
2021/07/29 00:29:01;;;;;;;14.13;10.43;;;14.50;99.90;;;;;;5072456;28;20485;-82
2021/07/29 00:31:29;;;;;;;21.88;12.30;;;14.50;99.90;;;;;;5072416;28;20075;-83
2021/07/29 00:33:56;;;;;;;21.85;12.32;;;14.50;99.90;;;;;;5071374;28;20044;-83
2021/07/29 00:36:23;;;;;;;13.70;9.05;;;14.50;99.90;;;;;;5071039;28;20485;-83
2021/07/29 00:38:51;;;;;;;9.85;8.13;;;14.30;99.90;;;;;;5071379;28;20078;-83
2021/07/29 00:41:17;;;;;;;10.00;7.95;;;14.30;99.90;;;;;;5071382;28;20127;-83
2021/07/29 00:43:45;;;;;;;13.85;9.15;;;14.30;99.90;;;;;;5071101;28;20063;-82
2021/07/29 00:46:13;;;;;;;12.68;10.00;;;14.20;99.90;;;;;;5072425;28;20401;-82
2021/07/29 00:48:40;;;;;;;16.65;10.88;;;14.20;99.90;;;;;;5071151;28;20056;-82
2021/07/29 00:51:07;;;;;;;13.00;10.35;;;14.20;99.90;;;;;;5072526;28;20382;-82
2021/07/29 00:53:35;;;;;;;13.32;10.38;;;14.20;99.90;;;;;;5071350;28;20399;-82
2021/07/29 00:56:02;;;;;;;20.15;12.10;;;14.30;99.90;;;;;;5070759;28;20048;-82
2021/07/29 00:58:29;;;;;;;24.42;12.60;;;14.30;99.90;;;;;;5071053;28;20422;-82
2021/07/29 01:00:56;;;;;;;17.70;11.23;;;14.30;99.90;;;;;;5070894;28;20055;-81
2021/07/29 01:03:23;;;;;;;13.18;10.98;;;14.30;99.90;;;;;;5074048;28;20044;-82
2021/07/29 01:05:50;;;;;;;17.42;12.50;;;14.30;99.90;;;;;;5074432;28;20049;-82
2021/07/29 01:08:17;;;;;;;23.77;12.82;;;14.30;99.90;;;;;;5074763;28;20147;-81
2021/07/29 01:10:44;;;;;;;17.90;12.02;;;14.30;99.90;;;;;;5075937;28;20420;-82
2021/07/29 01:13:11;;;;;;;16.55;12.65;;;14.40;99.90;;;;;;5075972;28;20045;-82
2021/07/29 01:15:37;;;;;;;22.95;14.05;;;14.40;99.90;;;;;;5075732;28;20051;-82
2021/07/29 01:18:04;;;;;;;15.35;11.50;;;14.50;99.90;;;;;;5074277;28;20060;-82
2021/07/29 01:20:31;;;;;;;16.60;12.02;;;14.50;99.90;;;;;;5075987;28;20044;-81
2021/07/29 01:22:58;;;;;;;18.38;12.77;;;14.50;99.90;;;;;;5074652;28;20062;-82
2021/07/29 01:25:25;;;;;;;28.13;12.85;;;14.50;99.90;;;;;;5074259;28;20412;-82
2021/07/29 01:27:51;;;;;;;19.23;12.10;;;14.50;99.90;;;;;;5075487;28;20045;-81
2021/07/29 01:30:18;;;;;;;29.23;15.32;;;14.50;99.90;;;;;;5074358;28;20048;-82
2021/07/29 01:32:45;;;;;;;20.20;13.65;;;14.40;99.90;;;;;;5074631;28;20074;-82
2021/07/29 01:35:12;;;;;;;20.95;13.23;;;14.60;99.90;;;;;;5075609;28;20041;-81
2021/07/29 01:37:40;;;;;;;23.05;15.18;;;14.70;99.90;;;;;;5074338;28;20465;-81
2021/07/29 01:40:08;;;;;;;24.15;14.55;;;14.80;99.90;;;;;;5075475;28;20051;-81
2021/07/29 01:42:35;;;;;;;16.55;12.95;;;14.80;99.90;;;;;;5086108;28;20052;-81
2021/07/29 01:45:02;;;;;;;24.92;14.65;;;14.80;99.90;;;;;;5079227;28;20090;-82
2021/07/29 01:47:29;;;;;;;18.60;11.85;;;14.80;99.90;;;;;;5074263;28;20056;-82
2021/07/29 01:49:56;;;;;;;19.05;12.60;;;14.80;99.90;;;;;;5073894;28;20053;-82
2021/07/29 01:52:23;;;;;;;21.35;12.65;;;14.80;99.90;;;;;;5073872;28;20059;-82
2021/07/29 01:54:50;;;;;;;16.58;11.68;;;14.70;99.90;;;;;;5074001;28;20049;-82
2021/07/29 01:57:16;;;;;;;20.45;12.27;;;14.70;99.90;;;;;;5074076;28;20120;-81
2021/07/29 01:59:43;;;;;;;18.90;10.70;;;14.70;99.90;;;;;;5074983;28;20049;-82
2021/07/29 02:02:10;;;;;;;14.75;10.93;;;14.50;99.90;;;;;;5074885;28;20088;-82
2021/07/29 02:04:37;;;;;;;13.98;10.77;;;14.50;99.90;;;;;;5073608;28;20546;-82
2021/07/29 02:07:04;;;;;;;14.05;10.90;;;14.60;99.90;;;;;;5073536;28;20091;-82
2021/07/29 02:09:30;;;;;;;13.73;10.50;;;14.60;99.90;;;;;;5073711;28;20491;-82
2021/07/29 02:11:59;;;;;;;20.73;10.55;;;14.70;99.90;;;;;;5073537;28;20484;-82
2021/07/29 02:14:28;;;;;;;15.35;10.98;;;14.70;99.90;;;;;;5074084;28;20083;-81
2021/07/29 02:16:56;;;;;;;12.82;10.35;;;14.80;99.90;;;;;;5073516;28;20094;-82
2021/07/29 02:19:23;;;;;;;10.75;8.52;;;14.70;99.90;;;;;;5074353;28;20408;-82
2021/07/29 02:21:49;;;;;;;8.52;7.72;;;14.60;99.90;;;;;;5073350;28;20132;-82
2021/07/29 02:24:16;;;;;;;14.35;10.10;;;14.60;99.90;;;;;;5074655;28;20507;-82
2021/07/29 02:26:43;;;;;;;12.95;8.35;;;14.30;99.90;;;;;;5073237;28;20086;-82
2021/07/29 02:29:10;;;;;;;9.35;7.32;;;14.20;99.90;;;;;;5073535;28;20047;-81
2021/07/29 02:31:37;;;;;;;11.85;7.75;;;14.20;99.90;;;;;;5074513;28;20048;-82
2021/07/29 02:34:04;;;;;;;8.25;7.43;;;14.00;99.90;;;;;;5074273;28;20045;-81
2021/07/29 02:36:30;;;;;;;13.85;8.32;;;14.00;99.90;;;;;;5074367;28;20055;-81
2021/07/29 02:38:57;;;;;;;14.25;9.10;;;13.90;99.90;;;;;;5074361;28;20071;-82
2021/07/29 02:41:24;;;;;;;11.77;7.72;;;13.90;99.90;;;;;;5073288;28;20044;-81
2021/07/29 02:43:51;;;;;;;14.13;9.50;;;13.80;99.90;;;;;;5073002;28;20046;-81
2021/07/29 02:46:18;;;;;;;9.82;8.82;;;13.70;99.90;;;;;;5072921;28;20052;-81
2021/07/29 02:48:45;;;;;;;9.35;8.20;;;13.70;99.90;;;;;;5072907;28;20051;-81
2021/07/29 02:51:11;;;;;;;20.27;9.48;;;13.70;99.90;;;;;;5072916;28;20059;-81
2021/07/29 02:53:38;;;;;;;17.35;10.20;;;13.60;99.90;;;;;;5073018;28;20048;-82
2021/07/29 02:56:08;;;;;;;12.95;9.98;;;13.60;99.90;;;;;;5072655;28;20140;-82
2021/07/29 02:58:35;;;;;;;11.57;9.27;;;13.70;99.90;;;;;;5074280;28;20127;-82
2021/07/29 03:01:02;;;;;;;16.77;9.68;;;13.80;99.90;;;;;;5074909;28;20398;-82
2021/07/29 03:03:30;;;;;;;13.90;8.52;;;13.70;99.90;;;;;;5084377;28;20485;-81
2021/07/29 03:05:57;;;;;;;9.20;7.85;;;13.70;99.90;;;;;;5073361;28;20102;-82
2021/07/29 03:08:24;;;;;;;9.73;8.52;;;13.60;99.90;;;;;;5072632;28;20055;-81
2021/07/29 03:10:52;;;;;;;12.18;9.20;;;13.60;99.90;;;;;;5073881;28;20118;-81
2021/07/29 03:13:19;;;;;;;26.10;12.13;;;13.70;99.90;;;;;;5072597;28;20485;-81
2021/07/29 03:15:46;;;;;;;29.08;12.55;;;13.70;99.90;;;;;;5071277;28;20059;-81
2021/07/29 03:18:13;;;;;;;41.33;12.07;;;13.80;99.90;;;;;;5072093;28;20048;-82
2021/07/29 03:20:41;;;;;;;18.00;10.75;;;13.80;99.90;;;;;;5072453;28;20053;-82
2021/07/29 03:23:08;;;;;;;14.73;10.48;;;13.80;99.90;;;;;;5072315;28;20051;-82
2021/07/29 03:25:34;;;;;;;11.15;10.02;;;13.80;99.90;;;;;;5073003;28;20487;-82
2021/07/29 03:28:02;;;;;;;68.93;12.07;;;13.80;99.90;;;;;;5072621;28;20044;-82
2021/07/29 03:30:29;;;;;;;16.73;8.68;;;13.70;99.90;;;;;;5073183;28;20055;-82
2021/07/29 03:32:55;;;;;;;10.88;8.05;;;13.80;99.90;;;;;;5072028;28;20047;-81
2021/07/29 03:35:22;;;;;;;10.95;7.97;;;13.70;99.90;;;;;;5073203;28;20420;-82
2021/07/29 03:37:49;;;;;;;9.52;7.53;;;13.70;99.90;;;;;;5071871;28;20046;-82
2021/07/29 03:40:16;;;;;;;10.65;7.40;;;13.60;99.90;;;;;;5071981;28;20053;-82
2021/07/29 03:42:42;;;;;;;11.52;8.38;;;13.40;99.90;;;;;;5071885;28;20131;-82
2021/07/29 03:45:09;;;;;;;13.18;7.93;;;13.40;99.90;;;;;;5072705;28;20416;-81
2021/07/29 03:47:36;;;;;;;31.95;12.07;;;13.30;99.90;;;;;;5072956;28;20098;-82
2021/07/29 03:50:04;;;;;;;9.98;9.02;;;13.20;99.90;;;;;;5072124;28;20099;-81
2021/07/29 03:52:30;;;;;;;15.30;8.95;;;13.20;99.90;;;;;;5071944;28;20132;-81
2021/07/29 03:54:58;;;;;;;16.10;8.95;;;13.30;99.90;;;;;;5072647;28;20041;-82
2021/07/29 03:57:25;;;;;;;10.95;8.38;;;13.30;99.90;;;;;;5071764;28;20049;-82
2021/07/29 03:59:53;;;;;;;10.05;8.88;;;13.40;99.90;;;;;;5071557;28;20052;-81
2021/07/29 04:02:19;;;;;;;10.20;9.20;;;13.30;99.90;;;;;;5071646;28;20050;-82
2021/07/29 04:04:46;;;;;;;12.02;9.07;;;13.40;99.90;;;;;;5071424;28;20053;-82
2021/07/29 04:07:13;;;;;;;15.75;11.30;;;13.40;99.90;;;;;;5071669;28;20500;-81
2021/07/29 04:09:40;;;;;;;12.05;9.70;;;13.40;99.90;;;;;;5071651;28;20048;-82
2021/07/29 04:12:07;;;;;;;12.25;9.27;;;13.40;99.90;;;;;;5071322;28;20504;-82
2021/07/29 04:14:34;;;;;;;10.05;9.02;;;13.40;99.90;;;;;;5072560;28;20048;-81
2021/07/29 04:17:01;;;;;;;11.00;9.43;;;13.40;99.90;;;;;;5071422;28;20052;-81
2021/07/29 04:19:32;;;;;;;11.10;9.80;;;13.40;99.90;;;;;;5072693;28;20058;-81
2021/07/29 04:21:59;;;;;;;9.93;9.02;;;13.30;99.90;;;;;;5076537;28;20048;-81
2021/07/29 04:24:29;;;;;;;10.15;9.02;;;13.40;99.90;;;;;;5078299;28;20157;-82
2021/07/29 04:26:56;;;;;;;9.45;8.50;;;13.30;99.90;;;;;;5071099;28;20055;-81
2021/07/29 04:29:24;;;;;;;10.43;8.23;;;13.30;99.90;;;;;;5071795;28;20055;-82
2021/07/29 04:31:51;;;;;;;10.55;9.07;;;13.30;99.90;;;;;;5072860;28;20091;-82
2021/07/29 04:34:19;;;;;;;10.45;8.98;;;13.30;99.90;;;;;;5071687;28;20102;-82
2021/07/29 04:36:46;;;;;;;11.93;9.00;;;13.20;99.90;;;;;;5071465;28;20128;-82
2021/07/29 04:39:13;;;;;;;10.95;8.73;;;13.20;99.90;;;;;;5072369;28;20056;-82
2021/07/29 04:41:44;;;;;;;13.20;9.50;;;13.20;99.90;;;;;;5071544;28;20068;-82
2021/07/29 04:44:13;;;;;;;12.18;9.80;;;13.20;99.90;;;;;;5072841;28;20062;-82
2021/07/29 04:46:41;;;;;;;10.77;9.68;;;13.20;99.90;;;;;;5072594;28;20062;-82
2021/07/29 04:49:11;;;;;;;12.25;8.88;;;13.30;99.90;;;;;;5072780;28;20049;-81
2021/07/29 04:51:39;;;;;;;17.48;10.90;;;13.30;99.90;;;;;;5071634;28;20055;-82
2021/07/29 04:54:06;;;;;;;14.98;10.57;;;13.30;99.90;;;;;;5072587;28;20052;-81
2021/07/29 04:56:33;;;;;;;10.18;9.27;;;13.30;99.90;;;;;;5072367;28;20437;-81
2021/07/29 04:58:59;;;;;;;15.35;11.43;;;13.20;99.90;;;;;;5071446;28;20118;-82
2021/07/29 05:01:26;;;;;;;14.68;11.88;;;13.30;99.90;;;;;;5071474;28;20044;-82
2021/07/29 05:03:53;;;;;;;16.63;13.25;;;13.40;99.90;;;;;;5071345;28;20056;-82
2021/07/29 05:06:20;;;;;;;14.60;11.45;;;13.40;99.90;;;;;;5072312;28;20470;-81
2021/07/29 05:08:47;;;;;;;17.92;12.07;;;13.50;99.90;;;;;;5071188;28;20489;-82
2021/07/29 05:11:13;;;;;;;21.13;13.13;;;13.60;99.90;;;;;;5071510;28;20058;-82
2021/07/29 05:13:40;;;;;;;20.80;14.65;;;13.70;99.90;;;;;;5071218;28;20083;-82
2021/07/29 05:16:07;;;;;;;22.65;16.15;;;13.80;99.90;;;;;;5072258;28;20084;-82
2021/07/29 05:18:35;;;;;;;24.48;19.05;;;13.90;99.90;;;;;;5071006;28;20056;-82
2021/07/29 05:21:03;;;;;;;51.65;26.48;;;14.10;99.90;;;;;;5071219;28;20416;-83
2021/07/29 05:23:30;;;;;;;54.45;29.38;;;14.70;99.90;;;;;;5072487;28;20047;-82
2021/07/29 05:25:57;;;;;;;37.22;24.00;;;14.80;99.90;;;;;;5072019;28;20544;-83
2021/07/29 05:28:24;;;;;;;248.38;72.70;;;15.30;99.90;;;;;;5071338;28;20084;-83
2021/07/29 05:30:51;;;;;;;20.38;13.52;;;16.20;99.90;;;;;;5072150;28;20045;-82
2021/07/29 05:33:18;;;;;;;9.77;8.77;;;17.40;99.90;;;;;;5072425;28;20127;-83
2021/07/29 05:35:45;;;;;;;7.05;6.28;;;18.20;99.90;;;;;;5070993;28;20072;-83
2021/07/29 05:38:12;;;;;;;7.63;5.32;;;19.10;99.90;;;;;;5071750;28;20049;-81
2021/07/29 05:40:39;;;;;;;3.72;3.03;;;19.00;99.90;;;;;;5077391;28;20048;-81
2021/07/29 05:43:05;;;;;;;3.58;3.20;;;19.50;99.90;;;;;;5076479;28;20106;-82
2021/07/29 05:45:33;;;;;;;3.55;2.72;;;20.40;99.90;;;;;;5070993;28;20048;-82
2021/07/29 05:48:00;;;;;;;3.75;2.50;;;21.30;99.90;;;;;;5071012;28;20044;-82
2021/07/29 05:50:27;;;;;;;2.65;2.25;;;21.60;99.90;;;;;;5072461;28;20048;-82
2021/07/29 05:52:54;;;;;;;2.55;2.30;;;21.70;99.90;;;;;;5075763;28;20052;-82
2021/07/29 05:55:20;;;;;;;2.33;2.08;;;21.90;99.90;;;;;;5074481;28;20076;-82
2021/07/29 05:57:47;;;;;;;4.50;2.15;;;22.80;99.90;;;;;;5074380;28;20044;-84
2021/07/29 06:00:14;;;;;;;3.90;2.60;;;23.70;99.90;;;;;;5074847;28;20049;-82
2021/07/29 06:02:41;;;;;;;2.33;1.95;;;23.80;99.90;;;;;;5074162;28;20543;-82
2021/07/29 06:05:08;;;;;;;1.65;1.60;;;24.50;99.90;;;;;;5075063;28;20045;-83
2021/07/29 06:07:35;;;;;;;2.67;2.00;;;25.30;99.90;;;;;;5073548;28;20132;-85
2021/07/29 06:10:03;;;;;;;3.30;2.10;;;25.70;99.90;;;;;;5074479;28;20084;-82
2021/07/29 06:12:29;;;;;;;3.70;2.30;;;25.40;99.90;;;;;;5074389;28;20136;-82
2021/07/29 06:14:57;;;;;;;2.55;1.70;;;24.90;99.90;;;;;;5073785;28;20048;-82
2021/07/29 06:17:27;;;;;;;3.28;1.98;;;24.30;99.90;;;;;;5074971;28;20055;-82
2021/07/29 06:19:55;;;;;;;3.40;1.92;;;24.70;99.90;;;;;;5073352;28;20151;-82
2021/07/29 06:22:22;;;;;;;2.55;1.80;;;24.80;99.90;;;;;;5074097;28;20054;-81
2021/07/29 06:24:48;;;;;;;2.65;2.03;;;23.30;99.90;;;;;;5073891;28;20413;-83
2021/07/29 06:27:15;;;;;;;3.15;2.22;;;22.60;99.90;;;;;;5074010;28;20439;-82
2021/07/29 06:29:42;;;;;;;5.68;2.00;;;22.50;99.90;;;;;;5073842;28;20055;-86
2021/07/29 06:32:11;;;;;;;2.33;2.03;;;22.60;99.90;;;;;;5073984;28;20523;-84
2021/07/29 06:34:38;;;;;;;4.70;1.83;;;23.10;99.90;;;;;;5075268;28;20390;-84
2021/07/29 06:37:04;;;;;;;3.95;2.30;;;23.30;99.90;;;;;;5073807;28;20052;-83
2021/07/29 06:39:31;;;;;;;2.38;2.17;;;24.10;99.90;;;;;;5073796;28;20072;-84
2021/07/29 06:41:58;;;;;;;2.85;1.95;;;24.90;99.90;;;;;;5074760;28;20378;-83
2021/07/29 06:44:25;;;;;;;2.08;1.98;;;25.10;99.90;;;;;;5072853;28;20052;-82
2021/07/29 06:46:52;;;;;;;1.63;1.52;;;25.60;99.90;;;;;;5074454;28;20052;-83
2021/07/29 06:49:19;;;;;;;2.35;2.13;;;26.40;99.90;;;;;;5073416;28;20493;-82
2021/07/29 06:51:45;;;;;;;3.47;2.10;;;27.10;99.90;;;;;;5073365;28;20048;-82
2021/07/29 06:54:12;;;;;;;4.72;2.03;;;28.20;99.90;;;;;;5074178;28;20083;-83
2021/07/29 06:56:39;;;;;;;2.38;1.90;;;28.40;97.40;;;;;;5073577;28;20048;-83
2021/07/29 06:59:05;;;;;;;1.70;1.60;;;28.70;97.30;;;;;;5076137;28;20048;-85
2021/07/29 07:01:34;;;;;;;3.20;2.30;;;28.20;94.60;;;;;;5088166;28;20140;-85
2021/07/29 07:04:02;;;;;;;3.90;2.00;;;27.30;95.20;;;;;;5076963;28;20048;-83
2021/07/29 07:06:34;;;;;;;2.80;1.92;;;26.10;97.80;;;;;;5072906;28;20048;-88
2021/07/29 07:09:01;;;;;;;3.40;1.90;;;27.00;96.80;;;;;;5074406;28;20045;-84
2021/07/29 07:11:27;;;;;;;3.38;2.22;;;26.70;96.40;;;;;;5073240;28;20132;-82
2021/07/29 07:13:55;;;;;;;3.25;2.50;;;26.40;96.70;;;;;;5072966;28;20045;-83
2021/07/29 07:16:22;;;;;;;2.67;1.98;;;26.00;98.20;;;;;;5074077;28;20497;-84
2021/07/29 07:18:49;;;;;;;4.40;1.85;;;25.10;98.40;;;;;;5071667;28;20056;-84
2021/07/29 07:21:16;;;;;;;2.67;1.92;;;24.10;99.90;;;;;;5072645;28;20048;-83
2021/07/29 07:23:42;;;;;;;2.78;2.25;;;23.80;99.90;;;;;;5073058;28;20047;-83
2021/07/29 07:26:17;;;;;;;4.85;2.40;;;23.20;99.90;;;;;;5073643;28;20404;-83
2021/07/29 07:28:45;;;;;;;3.08;2.25;;;22.40;99.90;;;;;;5073443;28;20150;-83
2021/07/29 07:31:12;;;;;;;4.97;2.25;;;22.10;99.90;;;;;;5072477;28;20047;-82
2021/07/29 07:33:39;;;;;;;4.47;2.40;;;22.00;99.90;;;;;;5071537;28;20332;-82
2021/07/29 07:36:06;;;;;;;7.13;2.13;;;22.40;99.90;;;;;;5072107;28;20052;-84
2021/07/29 07:38:33;;;;;;;3.47;2.40;;;23.20;99.90;;;;;;5072716;28;20058;-83
2021/07/29 07:41:07;;;;;;;2.03;1.83;;;23.90;99.90;;;;;;5072873;28;20455;-83
2021/07/29 07:43:35;;;;;;;2.38;1.63;;;24.90;99.90;;;;;;5073635;28;20058;-83
2021/07/29 07:46:03;;;;;;;4.05;2.13;;;26.00;99.90;;;;;;5072356;28;20055;-84
2021/07/29 07:48:30;;;;;;;2.17;1.63;;;27.40;99.90;;;;;;5072276;28;20553;-84
2021/07/29 07:50:57;;;;;;;4.28;1.88;;;29.70;96.60;;;;;;5072380;28;20051;-84
2021/07/29 07:53:26;;;;;;;5.25;2.10;;;29.10;93.30;;;;;;5072878;28;20052;-85
2021/07/29 07:55:53;;;;;;;5.65;2.03;;;27.20;93.60;;;;;;5072258;28;20055;-83
2021/07/29 07:58:20;;;;;;;2.63;1.77;;;26.60;95.50;;;;;;5072208;28;20070;-83
2021/07/29 08:00:47;;;;;;;5.93;2.70;;;27.40;95.20;;;;;;5072125;28;20053;-84
2021/07/29 08:03:15;;;;;;;3.63;1.90;;;26.60;96.00;;;;;;5073329;28;20516;-84
2021/07/29 08:05:42;;;;;;;4.32;1.83;;;26.80;95.00;;;;;;5071728;28;20455;-86
2021/07/29 08:08:09;;;;;;;2.25;2.05;;;25.90;96.10;;;;;;5072010;28;20487;-84
2021/07/29 08:10:38;;;;;;;2.08;1.95;;;25.30;97.50;;;;;;5072257;28;20099;-84
2021/07/29 08:13:06;;;;;;;1.83;1.73;;;25.00;98.80;;;;;;5071273;28;20487;-87
2021/07/29 08:15:34;;;;;;;3.22;2.00;;;24.80;99.90;;;;;;5072103;28;20041;-83
2021/07/29 08:18:01;;;;;;;3.65;2.10;;;24.90;99.60;;;;;;5071863;28;20457;-84
2021/07/29 08:20:28;;;;;;;3.25;1.88;;;25.20;99.90;;;;;;5082222;28;20039;-84
2021/07/29 08:22:56;;;;;;;4.65;2.03;;;26.40;99.40;;;;;;5089657;28;20044;-84
2021/07/29 08:25:24;;;;;;;3.05;1.80;;;28.30;95.80;;;;;;5073799;28;20064;-87
2021/07/29 08:27:53;;;;;;;2.35;1.70;;;29.00;94.40;;;;;;5072007;28;20095;-83
2021/07/29 08:30:20;;;;;;;1.83;1.70;;;30.80;91.30;;;;;;5072261;28;20441;-83
2021/07/29 08:32:47;;;;;;;3.65;1.80;;;30.80;87.80;;;;;;5072043;28;20385;-85
2021/07/29 08:35:14;;;;;;;2.88;2.05;;;31.40;83.10;;;;;;5072495;28;20566;-85
2021/07/29 08:37:44;;;;;;;2.78;1.50;;;29.70;85.20;;;;;;5072272;28;20049;-84
2021/07/29 08:40:16;;;;;;;1.98;1.88;;;30.50;83.30;;;;;;5073594;28;20428;-84
2021/07/29 08:42:45;;;;;;;3.08;1.67;;;30.00;82.00;;;;;;5071855;28;20044;-84
2021/07/29 08:45:12;;;;;;;1.67;1.55;;;30.30;81.00;;;;;;5072206;28;20054;-85
2021/07/29 08:47:43;;;;;;;2.25;1.55;;;30.00;82.50;;;;;;5072024;28;20055;-84
2021/07/29 08:50:12;;;;;;;1.85;1.75;;;29.70;81.70;;;;;;5071924;28;20049;-85
2021/07/29 08:52:38;;;;;;;5.80;1.80;;;28.90;81.40;;;;;;5071774;28;20139;-83
2021/07/29 08:55:06;;;;;;;6.07;2.08;;;27.80;84.70;;;;;;5072738;28;20549;-83
2021/07/29 08:57:34;;;;;;;6.30;1.92;;;27.70;87.60;;;;;;5071464;28;20048;-84
2021/07/29 09:00:07;;;;;;;4.75;1.95;;;27.50;89.00;;;;;;5072499;28;20485;-84
2021/07/29 09:02:34;;;;;;;9.30;2.22;;;27.40;87.40;;;;;;5071807;28;20063;-87
2021/07/29 09:05:17;;;;;;;9.02;2.40;;;26.60;85.40;;;;;;5071962;28;20128;-85
2021/07/29 09:07:59;;;;;;;3.38;1.80;;;25.30;90.40;;;;;;5071548;28;20489;-85
2021/07/29 09:10:27;;;;;;;2.13;1.85;;;24.70;91.40;;;;;;5071660;28;20052;-85
2021/07/29 09:13:17;;;;;;;2.05;1.83;;;24.60;92.90;;;;;;5072663;28;20401;-84
2021/07/29 09:15:45;;;;;;;2.00;1.80;;;24.50;93.80;;;;;;5071547;28;20455;-86
2021/07/29 09:18:17;;;;;;;4.10;1.80;;;24.60;94.40;;;;;;5071394;28;20461;-85
2021/07/29 09:20:44;;;;;;;2.45;1.80;;;24.40;94.60;;;;;;5071338;28;20048;-85
2021/07/29 09:23:16;;;;;;;2.83;1.73;;;25.40;92.20;;;;;;5071663;28;20084;-85
2021/07/29 09:25:45;;;;;;;3.58;1.80;;;26.70;90.30;;;;;;5075329;28;20048;-85
2021/07/29 09:28:29;;;;;;;2.80;1.77;;;28.50;87.30;;;;;;5075215;28;20507;-85
2021/07/29 09:30:56;;;;;;;1.67;1.58;;;29.20;79.80;;;;;;5075440;28;20045;-88
2021/07/29 09:33:23;;;;;;;2.85;1.50;;;31.10;77.70;;;;;;5077499;28;20056;-85
2021/07/29 09:35:52;;;;;;;2.25;1.65;;;30.70;73.10;;;;;;5076462;28;20976;-84
2021/07/29 09:38:33;;;;;;;2.38;1.63;;;28.80;75.70;;;;;;5075291;28;20139;-85
2021/07/29 09:41:00;;;;;;;4.90;2.15;;;27.80;81.00;;;;;;5086551;28;20396;-85
2021/07/29 09:43:32;;;;;;;2.45;1.90;;;27.10;79.70;;;;;;5079093;28;20060;-84
2021/07/29 09:46:17;;;;;;;3.47;1.92;;;25.90;82.10;;;;;;5074797;28;20550;-85
2021/07/29 09:48:45;;;;;;;1.80;1.70;;;25.50;85.60;;;;;;5075247;28;20060;-84
2021/07/29 09:51:12;;;;;;;6.15;1.90;;;26.40;83.20;;;;;;5075106;28;20082;-84
2021/07/29 09:53:39;;;;;;;2.30;1.90;;;26.70;83.30;;;;;;5075112;28;20048;-86
2021/07/29 09:56:10;;;;;;;2.55;1.75;;;28.00;80.80;;;;;;5075995;28;20131;-85
2021/07/29 09:58:57;;;;;;;2.55;2.20;;;28.50;74.20;;;;;;5075801;28;20052;-82
2021/07/29 10:01:24;;;;;;;2.25;2.03;;;27.50;77.20;;;;;;5074965;28;20048;-87
2021/07/29 10:03:52;;;;;;;3.13;1.92;;;26.00;77.30;;;;;;5074681;28;20106;-83
2021/07/29 10:06:21;;;;;;;2.85;1.88;;;25.30;81.50;;;;;;5074678;28;20151;-84
2021/07/29 10:08:56;;;;;;;3.05;2.13;;;26.20;78.80;;;;;;5075815;28;20143;-85
2021/07/29 10:11:27;;;;;;;3.05;1.88;;;27.70;78.00;;;;;;5074913;28;20060;-85
2021/07/29 10:13:54;;;;;;;3.28;2.67;;;27.90;75.60;;;;;;5074661;28;20083;-85
2021/07/29 10:16:43;;;;;;;2.08;1.90;;;27.40;75.40;;;;;;5073563;28;20048;-85
2021/07/29 10:19:10;;;;;;;5.10;2.20;;;26.40;79.00;;;;;;5074044;28;20063;-85
2021/07/29 10:21:38;;;;;;;2.28;2.05;;;25.90;82.90;;;;;;5074113;28;20139;-85
2021/07/29 10:24:10;;;;;;;4.82;2.15;;;25.40;82.60;;;;;;5075227;28;20110;-84
2021/07/29 10:26:58;;;;;;;5.55;2.83;;;24.90;82.60;;;;;;5073928;28;20051;-86
2021/07/29 10:29:30;;;;;;;3.90;2.17;;;24.60;85.60;;;;;;5073820;28;20136;-84
2021/07/29 10:32:02;;;;;;;2.92;2.10;;;24.30;86.30;;;;;;5073827;28;20049;-86
2021/07/29 10:34:30;;;;;;;4.85;2.10;;;24.30;86.80;;;;;;5073662;28;20052;-85
2021/07/29 10:37:04;;;;;;;3.17;2.63;;;25.20;86.80;;;;;;5073243;28;20040;-84
2021/07/29 10:39:32;;;;;;;2.50;2.20;;;26.30;84.40;;;;;;5074315;28;20441;-86
2021/07/29 10:42:01;;;;;;;2.17;2.00;;;28.70;79.70;;;;;;5073724;28;20054;-84
2021/07/29 10:44:31;;;;;;;2.15;1.90;;;31.70;71.20;;;;;;5073548;28;20048;-85
2021/07/29 10:46:57;;;;;;;5.93;2.42;;;32.80;69.10;;;;;;5073035;28;20127;-84
2021/07/29 10:49:43;;;;;;;2.13;2.00;;;33.20;62.60;;;;;;5074113;28;20299;-84
2021/07/29 10:52:14;;;;;;;2.70;1.77;;;32.00;62.90;;;;;;5074731;28;20045;-86
2021/07/29 10:54:43;;;;;;;2.15;1.98;;;31.70;62.70;;;;;;5074321;28;20214;-84
2021/07/29 10:57:12;;;;;;;2.40;1.98;;;30.90;64.80;;;;;;5072854;28;20045;-84
2021/07/29 10:59:39;;;;;;;4.28;2.70;;;30.30;67.70;;;;;;5079266;28;20048;-85
2021/07/29 11:02:13;;;;;;;2.45;2.10;;;29.60;69.30;;;;;;5087578;28;20155;-84
2021/07/29 11:04:58;;;;;;;4.47;2.40;;;28.90;70.30;;;;;;5074513;28;20114;-84
2021/07/29 11:07:26;;;;;;;3.08;2.30;;;27.90;72.10;;;;;;5072815;28;20075;-85
2021/07/29 11:10:04;;;;;;;2.13;1.98;;;27.30;73.70;;;;;;5074049;28;20451;-85
2021/07/29 11:12:32;;;;;;;7.38;3.15;;;26.60;75.00;;;;;;5073139;28;20048;-85
2021/07/29 11:15:00;;;;;;;6.00;2.20;;;25.60;76.70;;;;;;5074282;28;20048;-84
2021/07/29 11:17:27;;;;;;;2.13;2.00;;;24.90;78.70;;;;;;5073193;28;20048;-83
2021/07/29 11:19:53;;;;;;;3.00;2.30;;;24.70;79.80;;;;;;5073064;28;20526;-84
2021/07/29 11:22:20;;;;;;;7.80;2.25;;;25.70;79.70;;;;;;5074201;28;20049;-85
2021/07/29 11:24:47;;;;;;;6.82;2.47;;;27.60;77.90;;;;;;5074165;28;20207;-85
2021/07/29 11:27:14;;;;;;;2.05;1.90;;;28.30;72.80;;;;;;5073127;28;20411;-84
2021/07/29 11:30:01;;;;;;;2.50;2.15;;;28.00;72.80;;;;;;5073613;28;20055;-85
2021/07/29 11:32:42;;;;;;;9.68;2.65;;;29.20;69.20;;;;;;5073963;28;20083;-85
2021/07/29 11:35:16;;;;;;;7.53;2.30;;;28.50;67.00;;;;;;5072727;28;20049;-87
2021/07/29 11:37:45;;;;;;;66.70;5.78;;;29.20;65.70;;;;;;5073275;28;20199;-83
2021/07/29 11:40:20;;;;;;;7.47;2.40;;;28.10;67.70;;;;;;5072636;28;20083;-83
2021/07/29 11:42:47;;;;;;;2.50;1.85;;;28.40;66.80;;;;;;5072506;28;20048;-85
2021/07/29 11:45:34;;;;;;;5.60;1.95;;;28.70;66.30;;;;;;5072652;28;20123;-88
2021/07/29 11:48:01;;;;;;;2.28;2.08;;;28.50;65.50;;;;;;5072768;28;20078;-85
2021/07/29 11:50:38;;;;;;;2.35;2.15;;;28.50;68.20;;;;;;5072699;28;20486;-83
2021/07/29 11:53:09;;;;;;;2.10;1.90;;;29.20;64.20;;;;;;5072500;28;20140;-84
2021/07/29 11:55:38;;;;;;;3.92;2.10;;;28.60;66.20;;;;;;5073268;28;20063;-84
2021/07/29 11:58:06;;;;;;;3.85;2.05;;;28.10;63.70;;;;;;5073490;28;20053;-85
2021/07/29 12:00:35;;;;;;;5.13;2.00;;;27.30;66.90;;;;;;5072391;28;20479;-84
2021/07/29 12:03:04;;;;;;;2.47;2.22;;;26.90;67.20;;;;;;5072335;28;20055;-85
2021/07/29 12:05:34;;;;;;;2.90;2.20;;;26.70;68.00;;;;;;5072046;28;20083;-84
2021/07/29 12:08:03;;;;;;;1.95;1.75;;;26.20;66.80;;;;;;5072387;28;20083;-85
2021/07/29 12:10:32;;;;;;;2.08;1.90;;;26.20;67.20;;;;;;5071918;28;20041;-85
2021/07/29 12:13:00;;;;;;;2.03;1.92;;;26.10;69.50;;;;;;5072279;28;20091;-84
2021/07/29 12:15:27;;;;;;;4.68;2.67;;;25.90;69.70;;;;;;5073657;28;20047;-88
2021/07/29 12:18:17;;;;;;;3.90;1.77;;;25.30;69.20;;;;;;5073597;28;20527;-83
2021/07/29 12:20:48;;;;;;;7.43;2.00;;;25.20;71.60;;;;;;5084359;28;20044;-84
2021/07/29 12:23:19;;;;;;;8.13;2.40;;;25.00;70.40;;;;;;5072947;28;20473;-84
2021/07/29 12:25:47;;;;;;;10.70;2.17;;;24.70;71.10;;;;;;5072011;28;20050;-84
2021/07/29 12:28:15;;;;;;;3.90;2.00;;;24.50;71.30;;;;;;5071809;28;20449;-83
2021/07/29 12:30:46;;;;;;;2.17;2.00;;;24.30;71.50;;;;;;5072971;28;20041;-84
2021/07/29 12:33:17;;;;;;;6.78;2.30;;;24.30;74.40;;;;;;5072501;28;20053;-83
2021/07/29 12:35:59;;;;;;;5.82;1.90;;;24.00;71.00;;;;;;5072749;28;20051;-87
2021/07/29 12:38:30;;;;;;;2.75;1.85;;;23.90;70.50;;;;;;5072416;28;20048;-85
2021/07/29 12:40:57;;;;;;;1.98;1.83;;;23.90;72.40;;;;;;5072188;28;20044;-84
2021/07/29 12:43:25;;;;;;;2.60;1.88;;;24.00;72.60;;;;;;5071911;28;20044;-84
2021/07/29 12:46:00;;;;;;;9.13;2.50;;;24.30;72.40;;;;;;5071936;28;20503;-87
2021/07/29 12:48:51;;;;;;;4.53;1.80;;;24.30;71.00;;;;;;5072495;28;20135;-92